sensor_id;sensor_type;location;lat;lon;timestamp;temperature;humidity
22795;DHT22;11564;50.920;11.612;2022-09-02T00:00:56;9.40;99.90
22795;DHT22;11564;50.920;11.612;2022-09-02T00:03:31;9.40;99.90
22795;DHT22;11564;50.920;11.612;2022-09-02T00:05:58;9.40;99.90
22795;DHT22;11564;50.920;11.612;2022-09-02T00:08:24;9.30;99.90
22795;DHT22;11564;50.920;11.612;2022-09-02T00:10:50;9.30;99.90
22795;DHT22;11564;50.920;11.612;2022-09-02T00:13:16;9.30;99.90
22795;DHT22;11564;50.920;11.612;2022-09-02T00:15:44;9.30;99.90
22795;DHT22;11564;50.920;11.612;2022-09-02T00:18:09;9.30;99.90
22795;DHT22;11564;50.920;11.612;2022-09-02T00:20:37;9.20;99.90
22795;DHT22;11564;50.920;11.612;2022-09-02T00:23:03;9.20;99.90
22795;DHT22;11564;50.920;11.612;2022-09-02T00:25:28;9.20;99.90
22795;DHT22;11564;50.920;11.612;2022-09-02T00:27:54;9.20;99.90
22795;DHT22;11564;50.920;11.612;2022-09-02T00:30:19;9.20;99.90
22795;DHT22;11564;50.920;11.612;2022-09-02T00:32:45;9.20;99.90
22795;DHT22;11564;50.920;11.612;2022-09-02T00:35:10;9.20;99.90
22795;DHT22;11564;50.920;11.612;2022-09-02T00:37:36;9.20;99.90
22795;DHT22;11564;50.920;11.612;2022-09-02T00:40:03;9.20;99.90
22795;DHT22;11564;50.920;11.612;2022-09-02T00:42:29;9.20;99.90
22795;DHT22;11564;50.920;11.612;2022-09-02T00:44:54;9.20;99.90
22795;DHT22;11564;50.920;11.612;2022-09-02T00:47:20;9.20;99.90
22795;DHT22;11564;50.920;11.612;2022-09-02T00:49:48;9.20;99.90
22795;DHT22;11564;50.920;11.612;2022-09-02T00:52:23;9.10;99.90
22795;DHT22;11564;50.920;11.612;2022-09-02T00:54:55;9.10;99.90
22795;DHT22;11564;50.920;11.612;2022-09-02T00:57:21;9.10;99.90
22795;DHT22;11564;50.920;11.612;2022-09-02T01:02:23;9.00;99.90
22795;DHT22;11564;50.920;11.612;2022-09-02T01:04:50;9.00;99.90
22795;DHT22;11564;50.920;11.612;2022-09-02T01:07:18;9.00;99.90
22795;DHT22;11564;50.920;11.612;2022-09-02T01:09:43;8.90;99.90
22795;DHT22;11564;50.920;11.612;2022-09-02T01:12:09;8.90;99.90
22795;DHT22;11564;50.920;11.612;2022-09-02T01:14:36;8.90;99.90
22795;DHT22;11564;50.920;11.612;2022-09-02T01:17:02;8.80;99.90
22795;DHT22;11564;50.920;11.612;2022-09-02T01:19:32;8.80;99.90
22795;DHT22;11564;50.920;11.612;2022-09-02T01:21:58;8.80;99.90
22795;DHT22;11564;50.920;11.612;2022-09-02T01:24:25;8.80;99.90
22795;DHT22;11564;50.920;11.612;2022-09-02T01:26:52;8.80;99.90
22795;DHT22;11564;50.920;11.612;2022-09-02T01:29:18;8.80;99.90
22795;DHT22;11564;50.920;11.612;2022-09-02T01:31:44;8.70;99.90
22795;DHT22;11564;50.920;11.612;2022-09-02T01:34:09;8.70;99.90
22795;DHT22;11564;50.920;11.612;2022-09-02T01:36:39;8.60;99.90
22795;DHT22;11564;50.920;11.612;2022-09-02T01:39:05;8.60;99.90
22795;DHT22;11564;50.920;11.612;2022-09-02T01:41:31;8.50;99.90
22795;DHT22;11564;50.920;11.612;2022-09-02T01:43:56;8.50;99.90
22795;DHT22;11564;50.920;11.612;2022-09-02T01:46:22;8.50;99.90
22795;DHT22;11564;50.920;11.612;2022-09-02T01:48:48;8.50;99.90
22795;DHT22;11564;50.920;11.612;2022-09-02T01:51:17;8.40;99.90
22795;DHT22;11564;50.920;11.612;2022-09-02T01:53:43;8.40;99.90
22795;DHT22;11564;50.920;11.612;2022-09-02T01:56:09;8.40;99.90
22795;DHT22;11564;50.920;11.612;2022-09-02T01:58:35;8.40;99.90
22795;DHT22;11564;50.920;11.612;2022-09-02T02:01:00;8.40;99.90
22795;DHT22;11564;50.920;11.612;2022-09-02T02:03:26;8.30;99.90
22795;DHT22;11564;50.920;11.612;2022-09-02T02:05:52;8.30;99.90
22795;DHT22;11564;50.920;11.612;2022-09-02T02:08:17;8.30;99.90
22795;DHT22;11564;50.920;11.612;2022-09-02T02:10:43;8.20;99.90
22795;DHT22;11564;50.920;11.612;2022-09-02T02:13:08;8.20;99.90
22795;DHT22;11564;50.920;11.612;2022-09-02T02:15:35;8.30;99.90
22795;DHT22;11564;50.920;11.612;2022-09-02T02:18:01;8.20;99.90
22795;DHT22;11564;50.920;11.612;2022-09-02T02:20:27;8.20;99.90
22795;DHT22;11564;50.920;11.612;2022-09-02T02:22:53;8.20;99.90
22795;DHT22;11564;50.920;11.612;2022-09-02T02:25:19;8.20;99.90
22795;DHT22;11564;50.920;11.612;2022-09-02T02:27:44;8.20;99.90
22795;DHT22;11564;50.920;11.612;2022-09-02T02:30:11;8.20;99.90
22795;DHT22;11564;50.920;11.612;2022-09-02T02:32:36;8.10;99.90
22795;DHT22;11564;50.920;11.612;2022-09-02T02:35:02;8.10;99.90
22795;DHT22;11564;50.920;11.612;2022-09-02T02:37:28;8.10;99.90
22795;DHT22;11564;50.920;11.612;2022-09-02T02:39:54;8.10;99.90
22795;DHT22;11564;50.920;11.612;2022-09-02T02:42:20;8.10;99.90
22795;DHT22;11564;50.920;11.612;2022-09-02T02:44:45;8.00;99.90
22795;DHT22;11564;50.920;11.612;2022-09-02T02:47:12;8.10;99.90
22795;DHT22;11564;50.920;11.612;2022-09-02T02:49:38;8.00;99.90
22795;DHT22;11564;50.920;11.612;2022-09-02T02:52:04;8.00;99.90
22795;DHT22;11564;50.920;11.612;2022-09-02T02:54:29;7.90;99.90
22795;DHT22;11564;50.920;11.612;2022-09-02T02:56:55;7.90;99.90
22795;DHT22;11564;50.920;11.612;2022-09-02T02:59:20;7.80;99.90
22795;DHT22;11564;50.920;11.612;2022-09-02T03:01:46;7.80;99.90
22795;DHT22;11564;50.920;11.612;2022-09-02T03:04:12;7.80;99.90
22795;DHT22;11564;50.920;11.612;2022-09-02T03:06:37;7.80;99.90
22795;DHT22;11564;50.920;11.612;2022-09-02T03:09:03;7.70;99.90
22795;DHT22;11564;50.920;11.612;2022-09-02T03:11:29;7.70;99.90
22795;DHT22;11564;50.920;11.612;2022-09-02T03:13:55;7.70;99.90
22795;DHT22;11564;50.920;11.612;2022-09-02T03:16:20;7.80;99.90
22795;DHT22;11564;50.920;11.612;2022-09-02T03:18:46;7.70;99.90
22795;DHT22;11564;50.920;11.612;2022-09-02T03:21:12;7.70;99.90
22795;DHT22;11564;50.920;11.612;2022-09-02T03:23:40;7.70;99.90
22795;DHT22;11564;50.920;11.612;2022-09-02T03:26:09;7.70;99.90
22795;DHT22;11564;50.920;11.612;2022-09-02T03:28:35;7.70;99.90
22795;DHT22;11564;50.920;11.612;2022-09-02T03:31:00;7.70;99.90
22795;DHT22;11564;50.920;11.612;2022-09-02T03:33:26;7.70;99.90
22795;DHT22;11564;50.920;11.612;2022-09-02T03:35:51;7.60;99.90
22795;DHT22;11564;50.920;11.612;2022-09-02T03:38:17;7.60;99.90
22795;DHT22;11564;50.920;11.612;2022-09-02T03:40:43;7.60;99.90
22795;DHT22;11564;50.920;11.612;2022-09-02T03:43:09;7.60;99.90
22795;DHT22;11564;50.920;11.612;2022-09-02T03:45:34;7.60;99.90
22795;DHT22;11564;50.920;11.612;2022-09-02T03:48:00;7.60;99.90
22795;DHT22;11564;50.920;11.612;2022-09-02T03:50:27;7.60;99.90
22795;DHT22;11564;50.920;11.612;2022-09-02T03:52:54;7.50;99.90
22795;DHT22;11564;50.920;11.612;2022-09-02T03:55:21;7.40;99.90
22795;DHT22;11564;50.920;11.612;2022-09-02T03:57:47;7.40;99.90
22795;DHT22;11564;50.920;11.612;2022-09-02T04:00:15;7.40;99.90
22795;DHT22;11564;50.920;11.612;2022-09-02T04:02:42;7.40;99.90
22795;DHT22;11564;50.920;11.612;2022-09-02T04:05:08;7.40;99.90
22795;DHT22;11564;50.920;11.612;2022-09-02T04:07:34;7.40;99.90
22795;DHT22;11564;50.920;11.612;2022-09-02T04:09:59;7.40;99.90
22795;DHT22;11564;50.920;11.612;2022-09-02T04:12:25;7.40;99.90
22795;DHT22;11564;50.920;11.612;2022-09-02T04:14:51;7.40;99.90
22795;DHT22;11564;50.920;11.612;2022-09-02T04:17:16;7.40;99.90
22795;DHT22;11564;50.920;11.612;2022-09-02T04:19:41;7.30;99.90
22795;DHT22;11564;50.920;11.612;2022-09-02T04:22:07;7.40;99.90
22795;DHT22;11564;50.920;11.612;2022-09-02T04:24:33;7.30;99.90
22795;DHT22;11564;50.920;11.612;2022-09-02T04:26:58;7.30;99.90
22795;DHT22;11564;50.920;11.612;2022-09-02T04:29:24;7.30;99.90
22795;DHT22;11564;50.920;11.612;2022-09-02T04:31:50;7.30;99.90
22795;DHT22;11564;50.920;11.612;2022-09-02T04:34:16;7.30;99.90
22795;DHT22;11564;50.920;11.612;2022-09-02T04:36:41;7.30;99.90
22795;DHT22;11564;50.920;11.612;2022-09-02T04:39:07;7.30;99.90
22795;DHT22;11564;50.920;11.612;2022-09-02T04:41:33;7.30;99.90
22795;DHT22;11564;50.920;11.612;2022-09-02T04:44:00;7.30;99.90
22795;DHT22;11564;50.920;11.612;2022-09-02T04:46:25;7.30;99.90
22795;DHT22;11564;50.920;11.612;2022-09-02T04:48:51;7.30;99.90
22795;DHT22;11564;50.920;11.612;2022-09-02T04:51:18;7.30;99.90
22795;DHT22;11564;50.920;11.612;2022-09-02T04:53:44;7.30;99.90
22795;DHT22;11564;50.920;11.612;2022-09-02T04:56:11;7.30;99.90
22795;DHT22;11564;50.920;11.612;2022-09-02T04:58:37;7.30;99.90
22795;DHT22;11564;50.920;11.612;2022-09-02T05:01:06;7.40;99.90
22795;DHT22;11564;50.920;11.612;2022-09-02T05:03:33;7.40;99.90
22795;DHT22;11564;50.920;11.612;2022-09-02T05:05:59;7.40;99.90
22795;DHT22;11564;50.920;11.612;2022-09-02T05:08:25;7.40;99.90
22795;DHT22;11564;50.920;11.612;2022-09-02T05:10:50;7.50;99.90
22795;DHT22;11564;50.920;11.612;2022-09-02T05:13:17;7.50;99.90
22795;DHT22;11564;50.920;11.612;2022-09-02T05:15:43;7.60;99.90
22795;DHT22;11564;50.920;11.612;2022-09-02T05:18:09;7.60;99.90
22795;DHT22;11564;50.920;11.612;2022-09-02T05:20:36;7.60;99.90
22795;DHT22;11564;50.920;11.612;2022-09-02T05:23:04;7.60;99.90
22795;DHT22;11564;50.920;11.612;2022-09-02T05:25:30;7.70;99.90
22795;DHT22;11564;50.920;11.612;2022-09-02T05:27:55;7.70;99.90
22795;DHT22;11564;50.920;11.612;2022-09-02T05:30:21;7.80;99.90
22795;DHT22;11564;50.920;11.612;2022-09-02T05:32:46;7.80;99.90
22795;DHT22;11564;50.920;11.612;2022-09-02T05:35:14;7.90;99.90
22795;DHT22;11564;50.920;11.612;2022-09-02T05:37:40;8.00;99.90
22795;DHT22;11564;50.920;11.612;2022-09-02T05:40:05;8.00;99.90
22795;DHT22;11564;50.920;11.612;2022-09-02T05:42:32;8.10;99.90
22795;DHT22;11564;50.920;11.612;2022-09-02T05:44:57;8.20;99.90
22795;DHT22;11564;50.920;11.612;2022-09-02T05:47:23;8.20;99.90
22795;DHT22;11564;50.920;11.612;2022-09-02T05:49:49;8.30;99.90
22795;DHT22;11564;50.920;11.612;2022-09-02T05:52:15;8.40;99.90
22795;DHT22;11564;50.920;11.612;2022-09-02T05:54:42;8.40;99.90
22795;DHT22;11564;50.920;11.612;2022-09-02T05:57:11;8.60;99.90
22795;DHT22;11564;50.920;11.612;2022-09-02T05:59:38;8.70;99.90
22795;DHT22;11564;50.920;11.612;2022-09-02T06:02:09;8.70;99.90
22795;DHT22;11564;50.920;11.612;2022-09-02T06:04:36;8.80;99.90
22795;DHT22;11564;50.920;11.612;2022-09-02T06:07:01;8.90;99.90
22795;DHT22;11564;50.920;11.612;2022-09-02T06:09:27;9.00;99.90
22795;DHT22;11564;50.920;11.612;2022-09-02T06:11:52;9.10;99.90
22795;DHT22;11564;50.920;11.612;2022-09-02T06:14:19;9.20;99.90
22795;DHT22;11564;50.920;11.612;2022-09-02T06:16:46;9.30;99.90
22795;DHT22;11564;50.920;11.612;2022-09-02T06:19:12;9.40;99.90
22795;DHT22;11564;50.920;11.612;2022-09-02T06:21:38;9.60;99.90
22795;DHT22;11564;50.920;11.612;2022-09-02T06:24:04;9.70;99.90
22795;DHT22;11564;50.920;11.612;2022-09-02T06:26:30;9.80;99.90
22795;DHT22;11564;50.920;11.612;2022-09-02T06:28:56;9.90;99.90
22795;DHT22;11564;50.920;11.612;2022-09-02T06:31:22;10.10;99.90
22795;DHT22;11564;50.920;11.612;2022-09-02T06:33:49;10.20;99.90
22795;DHT22;11564;50.920;11.612;2022-09-02T06:36:16;10.30;99.90
22795;DHT22;11564;50.920;11.612;2022-09-02T06:38:43;10.50;99.90
22795;DHT22;11564;50.920;11.612;2022-09-02T06:41:10;10.60;99.90
22795;DHT22;11564;50.920;11.612;2022-09-02T06:43:36;10.70;99.90
22795;DHT22;11564;50.920;11.612;2022-09-02T06:46:01;10.80;99.90
22795;DHT22;11564;50.920;11.612;2022-09-02T06:48:27;11.00;99.90
22795;DHT22;11564;50.920;11.612;2022-09-02T06:50:52;11.00;99.90
22795;DHT22;11564;50.920;11.612;2022-09-02T06:53:19;11.10;99.90
22795;DHT22;11564;50.920;11.612;2022-09-02T06:55:45;11.20;99.90
22795;DHT22;11564;50.920;11.612;2022-09-02T06:58:11;11.30;99.90
22795;DHT22;11564;50.920;11.612;2022-09-02T07:00:38;11.40;99.90
22795;DHT22;11564;50.920;11.612;2022-09-02T07:03:03;11.70;99.90
22795;DHT22;11564;50.920;11.612;2022-09-02T07:08:46;12.00;99.90
22795;DHT22;11564;50.920;11.612;2022-09-02T07:11:17;12.10;99.90
22795;DHT22;11564;50.920;11.612;2022-09-02T07:13:42;12.30;99.90
22795;DHT22;11564;50.920;11.612;2022-09-02T07:16:08;12.40;99.90
22795;DHT22;11564;50.920;11.612;2022-09-02T07:18:33;12.60;99.90
22795;DHT22;11564;50.920;11.612;2022-09-02T07:20:59;12.70;99.90
22795;DHT22;11564;50.920;11.612;2022-09-02T07:23:25;12.80;99.90
22795;DHT22;11564;50.920;11.612;2022-09-02T07:25:51;13.00;99.90
22795;DHT22;11564;50.920;11.612;2022-09-02T07:28:16;13.10;99.90
22795;DHT22;11564;50.920;11.612;2022-09-02T07:30:42;13.20;99.90
22795;DHT22;11564;50.920;11.612;2022-09-02T07:33:09;13.30;99.90
22795;DHT22;11564;50.920;11.612;2022-09-02T07:35:37;13.40;99.90
22795;DHT22;11564;50.920;11.612;2022-09-02T07:38:04;13.50;99.90
22795;DHT22;11564;50.920;11.612;2022-09-02T07:40:29;13.70;99.90
22795;DHT22;11564;50.920;11.612;2022-09-02T07:42:55;13.90;99.90
22795;DHT22;11564;50.920;11.612;2022-09-02T07:45:20;14.10;99.90
22795;DHT22;11564;50.920;11.612;2022-09-02T07:47:46;14.20;99.90
22795;DHT22;11564;50.920;11.612;2022-09-02T07:50:13;14.30;99.90
22795;DHT22;11564;50.920;11.612;2022-09-02T07:52:40;14.40;99.90
22795;DHT22;11564;50.920;11.612;2022-09-02T07:55:05;14.60;99.90
22795;DHT22;11564;50.920;11.612;2022-09-02T07:57:31;14.70;99.90
22795;DHT22;11564;50.920;11.612;2022-09-02T07:59:56;14.90;99.90
22795;DHT22;11564;50.920;11.612;2022-09-02T08:02:22;14.90;99.90
22795;DHT22;11564;50.920;11.612;2022-09-02T08:04:48;15.10;99.90
22795;DHT22;11564;50.920;11.612;2022-09-02T08:07:14;15.20;99.90
22795;DHT22;11564;50.920;11.612;2022-09-02T08:09:41;15.30;99.90
22795;DHT22;11564;50.920;11.612;2022-09-02T08:12:06;15.50;99.90
22795;DHT22;11564;50.920;11.612;2022-09-02T08:14:32;15.60;99.90
22795;DHT22;11564;50.920;11.612;2022-09-02T08:16:57;15.80;99.90
22795;DHT22;11564;50.920;11.612;2022-09-02T08:19:23;15.90;99.90
22795;DHT22;11564;50.920;11.612;2022-09-02T08:21:49;15.90;99.90
22795;DHT22;11564;50.920;11.612;2022-09-02T08:24:14;16.00;99.90
22795;DHT22;11564;50.920;11.612;2022-09-02T08:26:40;16.20;99.90
22795;DHT22;11564;50.920;11.612;2022-09-02T08:29:06;16.30;99.90
22795;DHT22;11564;50.920;11.612;2022-09-02T08:31:32;16.40;99.90
22795;DHT22;11564;50.920;11.612;2022-09-02T08:33:58;16.70;99.90
22795;DHT22;11564;50.920;11.612;2022-09-02T08:36:24;16.80;99.90
22795;DHT22;11564;50.920;11.612;2022-09-02T08:38:49;16.80;99.90
22795;DHT22;11564;50.920;11.612;2022-09-02T08:41:19;16.90;99.90
22795;DHT22;11564;50.920;11.612;2022-09-02T08:43:45;16.90;99.90
22795;DHT22;11564;50.920;11.612;2022-09-02T08:46:12;17.00;99.90
22795;DHT22;11564;50.920;11.612;2022-09-02T08:51:07;17.40;99.90
22795;DHT22;11564;50.920;11.612;2022-09-02T08:55:58;17.70;99.90
22795;DHT22;11564;50.920;11.612;2022-09-02T08:58:26;17.90;99.90
22795;DHT22;11564;50.920;11.612;2022-09-02T09:03:28;18.20;99.90
22795;DHT22;11564;50.920;11.612;2022-09-02T09:11:42;18.60;99.90
22795;DHT22;11564;50.920;11.612;2022-09-02T09:16:41;19.10;99.90
22795;DHT22;11564;50.920;11.612;2022-09-02T09:21:35;19.60;99.90
22795;DHT22;11564;50.920;11.612;2022-09-02T09:24:01;19.70;99.90
22795;DHT22;11564;50.920;11.612;2022-09-02T09:26:28;19.70;99.90
22795;DHT22;11564;50.920;11.612;2022-09-02T09:28:57;19.80;96.90
22795;DHT22;11564;50.920;11.612;2022-09-02T09:31:27;19.80;96.60
22795;DHT22;11564;50.920;11.612;2022-09-02T09:34:00;20.10;95.30
22795;DHT22;11564;50.920;11.612;2022-09-02T09:36:42;20.50;91.60
22795;DHT22;11564;50.920;11.612;2022-09-02T09:39:18;20.60;88.00
22795;DHT22;11564;50.920;11.612;2022-09-02T09:41:44;20.60;89.20
22795;DHT22;11564;50.920;11.612;2022-09-02T09:44:10;20.60;87.70
22795;DHT22;11564;50.920;11.612;2022-09-02T09:46:35;20.90;90.00
22795;DHT22;11564;50.920;11.612;2022-09-02T09:49:01;20.90;84.30
22795;DHT22;11564;50.920;11.612;2022-09-02T09:51:26;20.90;84.10
22795;DHT22;11564;50.920;11.612;2022-09-02T09:53:52;21.10;83.20
22795;DHT22;11564;50.920;11.612;2022-09-02T09:56:37;21.10;83.70
22795;DHT22;11564;50.920;11.612;2022-09-02T09:59:04;21.00;83.30
22795;DHT22;11564;50.920;11.612;2022-09-02T10:01:32;21.00;82.40
22795;DHT22;11564;50.920;11.612;2022-09-02T10:04:02;21.10;82.00
22795;DHT22;11564;50.920;11.612;2022-09-02T10:09:24;21.90;80.10
22795;DHT22;11564;50.920;11.612;2022-09-02T10:14:23;22.70;76.90
22795;DHT22;11564;50.920;11.612;2022-09-02T10:25:01;23.60;74.10
22795;DHT22;11564;50.920;11.612;2022-09-02T10:27:31;23.70;73.80
22795;DHT22;11564;50.920;11.612;2022-09-02T10:32:33;23.80;68.10
22795;DHT22;11564;50.920;11.612;2022-09-02T10:35:24;23.80;68.80
22795;DHT22;11564;50.920;11.612;2022-09-02T10:40:40;23.80;68.20
22795;DHT22;11564;50.920;11.612;2022-09-02T10:46:04;24.10;68.00
22795;DHT22;11564;50.920;11.612;2022-09-02T10:51:03;23.50;68.60
22795;DHT22;11564;50.920;11.612;2022-09-02T10:53:45;23.60;68.70
22795;DHT22;11564;50.920;11.612;2022-09-02T10:56:16;23.20;63.40
22795;DHT22;11564;50.920;11.612;2022-09-02T11:04:04;24.60;63.90
22795;DHT22;11564;50.920;11.612;2022-09-02T11:06:37;24.90;60.40
22795;DHT22;11564;50.920;11.612;2022-09-02T11:09:08;25.30;61.70
22795;DHT22;11564;50.920;11.612;2022-09-02T11:11:40;25.40;58.30
22795;DHT22;11564;50.920;11.612;2022-09-02T11:14:26;25.10;58.20
22795;DHT22;11564;50.920;11.612;2022-09-02T11:19:25;24.90;62.80
22795;DHT22;11564;50.920;11.612;2022-09-02T11:24:27;24.90;62.00
22795;DHT22;11564;50.920;11.612;2022-09-02T11:32:06;25.30;61.60
22795;DHT22;11564;50.920;11.612;2022-09-02T11:37:03;25.20;61.90
22795;DHT22;11564;50.920;11.612;2022-09-02T11:54:38;24.40;61.50
22795;DHT22;11564;50.920;11.612;2022-09-02T11:57:04;24.70;62.80
22795;DHT22;11564;50.920;11.612;2022-09-02T12:07:47;26.10;62.00
22795;DHT22;11564;50.920;11.612;2022-09-02T12:15:24;27.20;57.60
22795;DHT22;11564;50.920;11.612;2022-09-02T12:23:00;27.90;55.60
22795;DHT22;11564;50.920;11.612;2022-09-02T12:35:54;27.40;54.80
22795;DHT22;11564;50.920;11.612;2022-09-02T12:38:31;27.30;56.40
22795;DHT22;11564;50.920;11.612;2022-09-02T12:48:40;26.70;56.40
22795;DHT22;11564;50.920;11.612;2022-09-02T12:51:08;26.60;56.60
22795;DHT22;11564;50.920;11.612;2022-09-02T12:53:39;26.60;56.80
22795;DHT22;11564;50.920;11.612;2022-09-02T12:56:15;26.50;56.90
22795;DHT22;11564;50.920;11.612;2022-09-02T12:58:49;26.60;54.80
22795;DHT22;11564;50.920;11.612;2022-09-02T13:14:40;26.30;55.60
22795;DHT22;11564;50.920;11.612;2022-09-02T13:32:44;27.40;53.60
22795;DHT22;11564;50.920;11.612;2022-09-02T13:35:16;27.50;52.50
22795;DHT22;11564;50.920;11.612;2022-09-02T13:37:43;27.50;53.80
22795;DHT22;11564;50.920;11.612;2022-09-02T13:42:50;27.40;53.50
22795;DHT22;11564;50.920;11.612;2022-09-02T13:45:17;27.10;52.30
22795;DHT22;11564;50.920;11.612;2022-09-02T13:47:47;26.90;54.60
22795;DHT22;11564;50.920;11.612;2022-09-02T13:50:15;27.10;53.80
22795;DHT22;11564;50.920;11.612;2022-09-02T13:52:41;26.90;53.40
22795;DHT22;11564;50.920;11.612;2022-09-02T13:55:09;27.00;53.80
22795;DHT22;11564;50.920;11.612;2022-09-02T13:57:35;27.10;53.50
22795;DHT22;11564;50.920;11.612;2022-09-02T14:00:02;27.30;52.30
22795;DHT22;11564;50.920;11.612;2022-09-02T14:02:28;27.30;52.20
22795;DHT22;11564;50.920;11.612;2022-09-02T14:04:55;27.20;52.20
22795;DHT22;11564;50.920;11.612;2022-09-02T14:07:26;27.20;52.20
22795;DHT22;11564;50.920;11.612;2022-09-02T14:09:52;27.00;53.20
22795;DHT22;11564;50.920;11.612;2022-09-02T14:12:18;26.90;52.40
22795;DHT22;11564;50.920;11.612;2022-09-02T14:14:44;27.00;52.00
22795;DHT22;11564;50.920;11.612;2022-09-02T14:17:20;27.10;51.90
22795;DHT22;11564;50.920;11.612;2022-09-02T14:19:47;27.00;52.80
22795;DHT22;11564;50.920;11.612;2022-09-02T14:22:26;26.70;51.90
22795;DHT22;11564;50.920;11.612;2022-09-02T14:24:52;26.70;51.70
22795;DHT22;11564;50.920;11.612;2022-09-02T14:27:18;27.80;52.00
22795;DHT22;11564;50.920;11.612;2022-09-02T14:29:44;31.80;47.40
22795;DHT22;11564;50.920;11.612;2022-09-02T14:32:28;35.10;43.20
22795;DHT22;11564;50.920;11.612;2022-09-02T14:35:07;36.80;40.80
22795;DHT22;11564;50.920;11.612;2022-09-02T14:37:33;37.70;37.70
22795;DHT22;11564;50.920;11.612;2022-09-02T14:42:24;37.80;36.40
22795;DHT22;11564;50.920;11.612;2022-09-02T14:44:50;37.40;37.10
22795;DHT22;11564;50.920;11.612;2022-09-02T14:47:15;35.70;37.20
22795;DHT22;11564;50.920;11.612;2022-09-02T14:49:48;34.30;38.00
22795;DHT22;11564;50.920;11.612;2022-09-02T14:52:16;33.20;39.30
22795;DHT22;11564;50.920;11.612;2022-09-02T14:54:43;31.40;41.40
22795;DHT22;11564;50.920;11.612;2022-09-02T14:57:19;30.50;43.10
22795;DHT22;11564;50.920;11.612;2022-09-02T14:59:46;29.80;43.90
22795;DHT22;11564;50.920;11.612;2022-09-02T15:04:53;28.20;46.70
22795;DHT22;11564;50.920;11.612;2022-09-02T15:07:19;27.80;47.60
22795;DHT22;11564;50.920;11.612;2022-09-02T15:09:44;27.30;47.40
22795;DHT22;11564;50.920;11.612;2022-09-02T15:12:13;27.00;48.10
22795;DHT22;11564;50.920;11.612;2022-09-02T15:14:39;26.70;48.10
22795;DHT22;11564;50.920;11.612;2022-09-02T15:17:06;26.30;49.80
22795;DHT22;11564;50.920;11.612;2022-09-02T15:19:32;25.90;50.40
22795;DHT22;11564;50.920;11.612;2022-09-02T15:21:58;25.70;52.30
22795;DHT22;11564;50.920;11.612;2022-09-02T15:24:23;25.40;52.00
22795;DHT22;11564;50.920;11.612;2022-09-02T15:26:49;25.20;52.80
22795;DHT22;11564;50.920;11.612;2022-09-02T15:29:14;25.00;52.10
22795;DHT22;11564;50.920;11.612;2022-09-02T15:31:40;25.10;52.00
22795;DHT22;11564;50.920;11.612;2022-09-02T15:34:06;25.10;52.40
22795;DHT22;11564;50.920;11.612;2022-09-02T15:36:32;25.10;51.70
22795;DHT22;11564;50.920;11.612;2022-09-02T15:38:57;25.20;52.60
22795;DHT22;11564;50.920;11.612;2022-09-02T15:41:23;25.20;51.80
22795;DHT22;11564;50.920;11.612;2022-09-02T15:43:50;25.40;52.00
22795;DHT22;11564;50.920;11.612;2022-09-02T15:48:47;26.90;51.10
22795;DHT22;11564;50.920;11.612;2022-09-02T15:51:13;27.40;49.60
22795;DHT22;11564;50.920;11.612;2022-09-02T15:53:39;27.50;49.00
22795;DHT22;11564;50.920;11.612;2022-09-02T15:56:13;27.70;49.00
22795;DHT22;11564;50.920;11.612;2022-09-02T15:58:39;27.30;49.30
22795;DHT22;11564;50.920;11.612;2022-09-02T16:01:05;27.00;49.30
22795;DHT22;11564;50.920;11.612;2022-09-02T16:03:30;26.20;50.40
22795;DHT22;11564;50.920;11.612;2022-09-02T16:06:00;25.90;51.20
22795;DHT22;11564;50.920;11.612;2022-09-02T16:08:25;25.40;52.40
22795;DHT22;11564;50.920;11.612;2022-09-02T16:10:51;25.10;52.70
22795;DHT22;11564;50.920;11.612;2022-09-02T16:13:16;24.80;53.50
22795;DHT22;11564;50.920;11.612;2022-09-02T16:15:42;24.60;54.80
22795;DHT22;11564;50.920;11.612;2022-09-02T16:18:10;24.60;54.90
22795;DHT22;11564;50.920;11.612;2022-09-02T16:20:35;24.90;54.60
22795;DHT22;11564;50.920;11.612;2022-09-02T16:23:01;25.00;54.20
22795;DHT22;11564;50.920;11.612;2022-09-02T16:25:26;25.10;53.80
22795;DHT22;11564;50.920;11.612;2022-09-02T16:27:52;24.90;54.50
22795;DHT22;11564;50.920;11.612;2022-09-02T16:30:19;24.60;54.20
22795;DHT22;11564;50.920;11.612;2022-09-02T16:32:44;24.20;55.60
22795;DHT22;11564;50.920;11.612;2022-09-02T16:35:12;23.80;55.30
22795;DHT22;11564;50.920;11.612;2022-09-02T16:37:37;23.50;56.40
22795;DHT22;11564;50.920;11.612;2022-09-02T16:40:03;23.30;58.10
22795;DHT22;11564;50.920;11.612;2022-09-02T16:42:29;23.10;57.80
22795;DHT22;11564;50.920;11.612;2022-09-02T16:44:54;22.90;58.80
22795;DHT22;11564;50.920;11.612;2022-09-02T16:47:20;22.60;59.80
22795;DHT22;11564;50.920;11.612;2022-09-02T16:49:45;22.50;60.50
22795;DHT22;11564;50.920;11.612;2022-09-02T16:52:11;22.40;59.60
22795;DHT22;11564;50.920;11.612;2022-09-02T16:54:36;22.10;62.10
22795;DHT22;11564;50.920;11.612;2022-09-02T16:57:02;21.90;63.00
22795;DHT22;11564;50.920;11.612;2022-09-02T16:59:28;21.70;64.40
22795;DHT22;11564;50.920;11.612;2022-09-02T17:01:55;21.40;64.90
22795;DHT22;11564;50.920;11.612;2022-09-02T17:04:21;21.30;64.10
22795;DHT22;11564;50.920;11.612;2022-09-02T17:06:47;21.10;64.40
22795;DHT22;11564;50.920;11.612;2022-09-02T17:09:13;21.00;62.40
22795;DHT22;11564;50.920;11.612;2022-09-02T17:11:40;20.80;64.20
22795;DHT22;11564;50.920;11.612;2022-09-02T17:14:10;20.50;64.90
22795;DHT22;11564;50.920;11.612;2022-09-02T17:16:40;20.30;65.30
22795;DHT22;11564;50.920;11.612;2022-09-02T17:19:06;20.10;66.30
22795;DHT22;11564;50.920;11.612;2022-09-02T17:21:33;19.80;68.20
22795;DHT22;11564;50.920;11.612;2022-09-02T17:24:00;19.50;68.20
22795;DHT22;11564;50.920;11.612;2022-09-02T17:26:26;19.40;70.10
22795;DHT22;11564;50.920;11.612;2022-09-02T17:28:53;19.10;69.60
22795;DHT22;11564;50.920;11.612;2022-09-02T17:33:45;18.80;71.10
22795;DHT22;11564;50.920;11.612;2022-09-02T17:36:11;18.70;70.90
22795;DHT22;11564;50.920;11.612;2022-09-02T17:38:36;18.50;71.30
22795;DHT22;11564;50.920;11.612;2022-09-02T17:41:02;18.40;72.30
22795;DHT22;11564;50.920;11.612;2022-09-02T17:43:46;18.20;70.90
22795;DHT22;11564;50.920;11.612;2022-09-02T17:46:11;18.10;71.50
22795;DHT22;11564;50.920;11.612;2022-09-02T17:48:37;18.00;70.80
22795;DHT22;11564;50.920;11.612;2022-09-02T17:51:02;17.90;71.10
22795;DHT22;11564;50.920;11.612;2022-09-02T17:53:28;17.80;70.50
22795;DHT22;11564;50.920;11.612;2022-09-02T17:55:55;17.80;70.00
22795;DHT22;11564;50.920;11.612;2022-09-02T17:58:24;17.70;71.10
22795;DHT22;11564;50.920;11.612;2022-09-02T18:00:52;17.70;69.40